sensor_id;sensor_type;location;lat;lon;timestamp;P1;durP1;ratioP1;P2;durP2;ratioP2
5718;SDS011;2884;47.734;9.244;2022-08-19T00:01:31;20.30;;;19.20;;
5718;SDS011;2884;47.734;9.244;2022-08-19T00:03:59;19.87;;;18.77;;
5718;SDS011;2884;47.734;9.244;2022-08-19T00:06:26;19.80;;;18.70;;
5718;SDS011;2884;47.734;9.244;2022-08-19T00:08:53;20.27;;;19.20;;
5718;SDS011;2884;47.734;9.244;2022-08-19T00:11:19;21.47;;;20.17;;
5718;SDS011;2884;47.734;9.244;2022-08-19T00:13:45;21.47;;;20.27;;
5718;SDS011;2884;47.734;9.244;2022-08-19T00:16:13;19.63;;;18.53;;
5718;SDS011;2884;47.734;9.244;2022-08-19T00:18:39;19.53;;;18.33;;
5718;SDS011;2884;47.734;9.244;2022-08-19T00:21:05;20.87;;;19.67;;
5718;SDS011;2884;47.734;9.244;2022-08-19T00:23:35;19.60;;;18.40;;
5718;SDS011;2884;47.734;9.244;2022-08-19T00:26:04;20.30;;;19.07;;
5718;SDS011;2884;47.734;9.244;2022-08-19T00:28:31;20.13;;;18.93;;
5718;SDS011;2884;47.734;9.244;2022-08-19T00:30:58;19.37;;;18.27;;
5718;SDS011;2884;47.734;9.244;2022-08-19T00:33:24;21.37;;;19.90;;
5718;SDS011;2884;47.734;9.244;2022-08-19T00:35:49;22.10;;;20.57;;
5718;SDS011;2884;47.734;9.244;2022-08-19T00:38:15;22.63;;;21.33;;
5718;SDS011;2884;47.734;9.244;2022-08-19T00:40:42;21.47;;;20.27;;
5718;SDS011;2884;47.734;9.244;2022-08-19T00:43:12;20.10;;;18.83;;
5718;SDS011;2884;47.734;9.244;2022-08-19T00:45:40;19.70;;;18.60;;
5718;SDS011;2884;47.734;9.244;2022-08-19T00:48:09;19.70;;;18.60;;
5718;SDS011;2884;47.734;9.244;2022-08-19T00:50:35;20.80;;;19.40;;
5718;SDS011;2884;47.734;9.244;2022-08-19T00:53:01;19.80;;;18.70;;
5718;SDS011;2884;47.734;9.244;2022-08-19T00:55:29;19.60;;;18.50;;
5718;SDS011;2884;47.734;9.244;2022-08-19T00:57:58;19.17;;;17.97;;
5718;SDS011;2884;47.734;9.244;2022-08-19T01:00:26;18.50;;;17.40;;
5718;SDS011;2884;47.734;9.244;2022-08-19T01:02:52;19.40;;;18.30;;
5718;SDS011;2884;47.734;9.244;2022-08-19T01:05:23;20.37;;;18.97;;
5718;SDS011;2884;47.734;9.244;2022-08-19T01:07:50;20.23;;;19.03;;
5718;SDS011;2884;47.734;9.244;2022-08-19T01:10:17;20.33;;;19.13;;
5718;SDS011;2884;47.734;9.244;2022-08-19T01:12:46;19.90;;;18.70;;
5718;SDS011;2884;47.734;9.244;2022-08-19T01:15:15;22.00;;;20.37;;
5718;SDS011;2884;47.734;9.244;2022-08-19T01:17:42;22.53;;;20.77;;
5718;SDS011;2884;47.734;9.244;2022-08-19T01:20:13;23.33;;;21.77;;
5718;SDS011;2884;47.734;9.244;2022-08-19T01:22:46;22.33;;;20.73;;
5718;SDS011;2884;47.734;9.244;2022-08-19T01:25:15;20.80;;;19.20;;
5718;SDS011;2884;47.734;9.244;2022-08-19T01:27:43;22.80;;;21.10;;
5718;SDS011;2884;47.734;9.244;2022-08-19T01:30:15;24.93;;;22.80;;
5718;SDS011;2884;47.734;9.244;2022-08-19T01:32:52;24.90;;;23.00;;
5718;SDS011;2884;47.734;9.244;2022-08-19T01:35:19;24.10;;;22.40;;
5718;SDS011;2884;47.734;9.244;2022-08-19T01:37:46;23.63;;;22.03;;
5718;SDS011;2884;47.734;9.244;2022-08-19T01:40:14;23.70;;;22.10;;
5718;SDS011;2884;47.734;9.244;2022-08-19T01:42:41;25.50;;;23.57;;
5718;SDS011;2884;47.734;9.244;2022-08-19T01:45:07;23.80;;;22.00;;
5718;SDS011;2884;47.734;9.244;2022-08-19T01:47:35;26.50;;;24.60;;
5718;SDS011;2884;47.734;9.244;2022-08-19T01:50:03;26.60;;;24.70;;
5718;SDS011;2884;47.734;9.244;2022-08-19T01:52:29;27.33;;;25.33;;
5718;SDS011;2884;47.734;9.244;2022-08-19T01:54:55;24.63;;;22.93;;
5718;SDS011;2884;47.734;9.244;2022-08-19T01:57:21;24.23;;;22.73;;
5718;SDS011;2884;47.734;9.244;2022-08-19T01:59:46;26.00;;;23.80;;
5718;SDS011;2884;47.734;9.244;2022-08-19T02:02:12;24.57;;;22.87;;
5718;SDS011;2884;47.734;9.244;2022-08-19T02:04:38;25.80;;;24.03;;
5718;SDS011;2884;47.734;9.244;2022-08-19T02:07:04;28.17;;;25.83;;
5718;SDS011;2884;47.734;9.244;2022-08-19T02:09:31;28.17;;;26.00;;
5718;SDS011;2884;47.734;9.244;2022-08-19T02:11:57;26.90;;;24.90;;
5718;SDS011;2884;47.734;9.244;2022-08-19T02:14:23;26.53;;;24.63;;
5718;SDS011;2884;47.734;9.244;2022-08-19T02:16:49;26.27;;;24.17;;
5718;SDS011;2884;47.734;9.244;2022-08-19T02:19:14;27.87;;;25.80;;
5718;SDS011;2884;47.734;9.244;2022-08-19T02:21:40;29.80;;;27.60;;
5718;SDS011;2884;47.734;9.244;2022-08-19T02:24:06;27.57;;;25.37;;
5718;SDS011;2884;47.734;9.244;2022-08-19T02:26:32;26.00;;;24.20;;
5718;SDS011;2884;47.734;9.244;2022-08-19T02:28:58;26.20;;;24.33;;
5718;SDS011;2884;47.734;9.244;2022-08-19T02:31:24;25.43;;;23.57;;
5718;SDS011;2884;47.734;9.244;2022-08-19T02:33:51;24.53;;;22.73;;
5718;SDS011;2884;47.734;9.244;2022-08-19T02:36:17;24.77;;;23.07;;
5718;SDS011;2884;47.734;9.244;2022-08-19T02:38:43;23.73;;;22.13;;
5718;SDS011;2884;47.734;9.244;2022-08-19T02:41:14;24.30;;;22.60;;
5718;SDS011;2884;47.734;9.244;2022-08-19T02:43:44;24.00;;;22.30;;
5718;SDS011;2884;47.734;9.244;2022-08-19T02:48:50;24.73;;;23.03;;
5718;SDS011;2884;47.734;9.244;2022-08-19T02:51:17;25.83;;;24.03;;
5718;SDS011;2884;47.734;9.244;2022-08-19T02:53:45;26.53;;;24.60;;
5718;SDS011;2884;47.734;9.244;2022-08-19T02:56:10;25.97;;;24.27;;
5718;SDS011;2884;47.734;9.244;2022-08-19T02:58:36;26.40;;;24.60;;
5718;SDS011;2884;47.734;9.244;2022-08-19T03:01:01;27.00;;;25.10;;
5718;SDS011;2884;47.734;9.244;2022-08-19T03:03:27;25.23;;;23.43;;
5718;SDS011;2884;47.734;9.244;2022-08-19T03:06:02;26.83;;;24.83;;
5718;SDS011;2884;47.734;9.244;2022-08-19T03:08:32;26.37;;;24.33;;
5718;SDS011;2884;47.734;9.244;2022-08-19T03:10:58;29.10;;;26.80;;
5718;SDS011;2884;47.734;9.244;2022-08-19T03:13:23;27.30;;;25.13;;
5718;SDS011;2884;47.734;9.244;2022-08-19T03:15:49;28.43;;;26.37;;
5718;SDS011;2884;47.734;9.244;2022-08-19T03:18:15;29.60;;;27.27;;
5718;SDS011;2884;47.734;9.244;2022-08-19T03:20:46;32.30;;;29.33;;
5718;SDS011;2884;47.734;9.244;2022-08-19T03:23:15;33.50;;;30.70;;
5718;SDS011;2884;47.734;9.244;2022-08-19T03:25:43;32.03;;;29.33;;
5718;SDS011;2884;47.734;9.244;2022-08-19T03:28:10;31.23;;;28.53;;
5718;SDS011;2884;47.734;9.244;2022-08-19T03:30:37;30.33;;;27.83;;
5718;SDS011;2884;47.734;9.244;2022-08-19T03:33:05;34.27;;;31.03;;
5718;SDS011;2884;47.734;9.244;2022-08-19T03:35:31;35.33;;;32.33;;
5718;SDS011;2884;47.734;9.244;2022-08-19T03:38:14;33.57;;;30.40;;
5718;SDS011;2884;47.734;9.244;2022-08-19T03:40:40;33.87;;;30.97;;
5718;SDS011;2884;47.734;9.244;2022-08-19T03:43:06;34.77;;;31.73;;
5718;SDS011;2884;47.734;9.244;2022-08-19T03:45:31;34.83;;;31.90;;
5718;SDS011;2884;47.734;9.244;2022-08-19T03:47:57;33.20;;;30.33;;
5718;SDS011;2884;47.734;9.244;2022-08-19T03:50:22;32.43;;;29.70;;
5718;SDS011;2884;47.734;9.244;2022-08-19T03:52:49;33.03;;;30.13;;
5718;SDS011;2884;47.734;9.244;2022-08-19T03:55:16;33.30;;;30.60;;
5718;SDS011;2884;47.734;9.244;2022-08-19T03:57:43;33.93;;;30.70;;
5718;SDS011;2884;47.734;9.244;2022-08-19T04:00:10;34.80;;;32.00;;
5718;SDS011;2884;47.734;9.244;2022-08-19T04:02:36;33.40;;;30.77;;
5718;SDS011;2884;47.734;9.244;2022-08-19T04:05:02;34.87;;;31.83;;
5718;SDS011;2884;47.734;9.244;2022-08-19T04:07:27;33.43;;;30.57;;
5718;SDS011;2884;47.734;9.244;2022-08-19T04:09:53;34.83;;;31.93;;
5718;SDS011;2884;47.734;9.244;2022-08-19T04:12:19;36.03;;;32.80;;
5718;SDS011;2884;47.734;9.244;2022-08-19T04:14:45;36.53;;;33.23;;
5718;SDS011;2884;47.734;9.244;2022-08-19T04:17:11;37.17;;;33.77;;
5718;SDS011;2884;47.734;9.244;2022-08-19T04:19:37;37.30;;;34.00;;
5718;SDS011;2884;47.734;9.244;2022-08-19T04:22:05;36.67;;;33.27;;
5718;SDS011;2884;47.734;9.244;2022-08-19T04:24:33;36.53;;;33.23;;
5718;SDS011;2884;47.734;9.244;2022-08-19T04:27:00;37.37;;;33.80;;
5718;SDS011;2884;47.734;9.244;2022-08-19T04:29:26;41.40;;;37.20;;
5718;SDS011;2884;47.734;9.244;2022-08-19T04:31:52;37.63;;;33.93;;
5718;SDS011;2884;47.734;9.244;2022-08-19T04:34:20;38.73;;;35.00;;
5718;SDS011;2884;47.734;9.244;2022-08-19T04:36:49;37.50;;;34.23;;
5718;SDS011;2884;47.734;9.244;2022-08-19T04:39:17;37.33;;;34.03;;
5718;SDS011;2884;47.734;9.244;2022-08-19T04:41:44;39.50;;;35.77;;
5718;SDS011;2884;47.734;9.244;2022-08-19T04:44:32;39.10;;;35.43;;
5718;SDS011;2884;47.734;9.244;2022-08-19T04:46:59;39.73;;;35.70;;
5718;SDS011;2884;47.734;9.244;2022-08-19T04:49:24;40.80;;;36.70;;
5718;SDS011;2884;47.734;9.244;2022-08-19T04:51:51;39.40;;;35.30;;
5718;SDS011;2884;47.734;9.244;2022-08-19T04:54:19;40.23;;;36.03;;
5718;SDS011;2884;47.734;9.244;2022-08-19T04:56:48;37.00;;;33.13;;
5718;SDS011;2884;47.734;9.244;2022-08-19T04:59:17;37.77;;;33.87;;
5718;SDS011;2884;47.734;9.244;2022-08-19T05:01:43;39.97;;;35.73;;
5718;SDS011;2884;47.734;9.244;2022-08-19T05:04:09;35.63;;;32.30;;
5718;SDS011;2884;47.734;9.244;2022-08-19T05:06:35;37.00;;;33.60;;
5718;SDS011;2884;47.734;9.244;2022-08-19T05:09:02;36.63;;;32.83;;
5718;SDS011;2884;47.734;9.244;2022-08-19T05:11:33;39.23;;;34.67;;
5718;SDS011;2884;47.734;9.244;2022-08-19T05:14:03;39.77;;;35.63;;
5718;SDS011;2884;47.734;9.244;2022-08-19T05:16:29;40.90;;;36.83;;
5718;SDS011;2884;47.734;9.244;2022-08-19T05:18:55;44.50;;;39.40;;
5718;SDS011;2884;47.734;9.244;2022-08-19T05:21:40;44.20;;;39.57;;
5718;SDS011;2884;47.734;9.244;2022-08-19T05:24:25;41.97;;;37.67;;
5718;SDS011;2884;47.734;9.244;2022-08-19T05:26:51;41.63;;;36.40;;
5718;SDS011;2884;47.734;9.244;2022-08-19T05:29:19;44.07;;;39.37;;
5718;SDS011;2884;47.734;9.244;2022-08-19T05:31:46;44.43;;;40.00;;
5718;SDS011;2884;47.734;9.244;2022-08-19T05:34:14;42.53;;;38.27;;
5718;SDS011;2884;47.734;9.244;2022-08-19T05:36:41;42.23;;;38.10;;
5718;SDS011;2884;47.734;9.244;2022-08-19T05:39:10;42.50;;;38.37;;
5718;SDS011;2884;47.734;9.244;2022-08-19T05:41:41;43.20;;;39.07;;
5718;SDS011;2884;47.734;9.244;2022-08-19T05:44:07;43.43;;;38.93;;
5718;SDS011;2884;47.734;9.244;2022-08-19T05:46:34;40.63;;;36.73;;
5718;SDS011;2884;47.734;9.244;2022-08-19T05:49:03;40.97;;;36.87;;
5718;SDS011;2884;47.734;9.244;2022-08-19T05:51:31;43.10;;;38.60;;
5718;SDS011;2884;47.734;9.244;2022-08-19T05:53:57;43.43;;;38.93;;
5718;SDS011;2884;47.734;9.244;2022-08-19T05:56:23;43.63;;;39.30;;
5718;SDS011;2884;47.734;9.244;2022-08-19T05:58:48;45.63;;;40.83;;
5718;SDS011;2884;47.734;9.244;2022-08-19T06:01:16;43.20;;;38.80;;
5718;SDS011;2884;47.734;9.244;2022-08-19T06:03:43;43.33;;;38.80;;
5718;SDS011;2884;47.734;9.244;2022-08-19T06:06:09;45.30;;;40.83;;
5718;SDS011;2884;47.734;9.244;2022-08-19T06:08:36;43.50;;;39.07;;
5718;SDS011;2884;47.734;9.244;2022-08-19T06:13:39;42.70;;;38.53;;
5718;SDS011;2884;47.734;9.244;2022-08-19T06:16:05;40.87;;;36.57;;
5718;SDS011;2884;47.734;9.244;2022-08-19T06:18:31;41.80;;;37.70;;
5718;SDS011;2884;47.734;9.244;2022-08-19T06:20:57;44.73;;;40.03;;
5718;SDS011;2884;47.734;9.244;2022-08-19T06:23:22;42.17;;;37.93;;
5718;SDS011;2884;47.734;9.244;2022-08-19T06:25:48;42.10;;;37.50;;
5718;SDS011;2884;47.734;9.244;2022-08-19T06:28:13;41.33;;;37.13;;
5718;SDS011;2884;47.734;9.244;2022-08-19T06:30:39;41.90;;;37.47;;
5718;SDS011;2884;47.734;9.244;2022-08-19T06:33:05;42.30;;;37.90;;
5718;SDS011;2884;47.734;9.244;2022-08-19T06:35:30;40.83;;;36.70;;
5718;SDS011;2884;47.734;9.244;2022-08-19T06:37:56;50.43;;;40.20;;
5718;SDS011;2884;47.734;9.244;2022-08-19T06:40:22;39.40;;;34.93;;
5718;SDS011;2884;47.734;9.244;2022-08-19T06:42:47;40.57;;;36.17;;
5718;SDS011;2884;47.734;9.244;2022-08-19T06:45:13;40.73;;;35.60;;
5718;SDS011;2884;47.734;9.244;2022-08-19T06:47:39;40.50;;;36.20;;
5718;SDS011;2884;47.734;9.244;2022-08-19T06:50:05;39.57;;;35.37;;
5718;SDS011;2884;47.734;9.244;2022-08-19T06:52:32;39.13;;;35.03;;
5718;SDS011;2884;47.734;9.244;2022-08-19T06:54:59;42.67;;;38.20;;
5718;SDS011;2884;47.734;9.244;2022-08-19T06:57:25;38.40;;;34.40;;
5718;SDS011;2884;47.734;9.244;2022-08-19T06:59:51;39.07;;;35.07;;
5718;SDS011;2884;47.734;9.244;2022-08-19T07:02:17;40.93;;;36.73;;
5718;SDS011;2884;47.734;9.244;2022-08-19T07:04:43;40.50;;;36.37;;
5718;SDS011;2884;47.734;9.244;2022-08-19T07:07:10;42.43;;;37.90;;
5718;SDS011;2884;47.734;9.244;2022-08-19T07:09:38;39.53;;;35.50;;
5718;SDS011;2884;47.734;9.244;2022-08-19T07:12:06;41.80;;;37.30;;
5718;SDS011;2884;47.734;9.244;2022-08-19T07:14:34;44.67;;;37.97;;
5718;SDS011;2884;47.734;9.244;2022-08-19T07:17:02;44.63;;;38.53;;
5718;SDS011;2884;47.734;9.244;2022-08-19T07:19:29;38.90;;;34.90;;
5718;SDS011;2884;47.734;9.244;2022-08-19T07:21:55;44.00;;;39.10;;
5718;SDS011;2884;47.734;9.244;2022-08-19T07:24:24;43.30;;;38.80;;
5718;SDS011;2884;47.734;9.244;2022-08-19T07:26:51;46.47;;;38.93;;
5718;SDS011;2884;47.734;9.244;2022-08-19T07:29:18;50.13;;;41.73;;
5718;SDS011;2884;47.734;9.244;2022-08-19T07:31:48;48.80;;;39.97;;
5718;SDS011;2884;47.734;9.244;2022-08-19T07:34:16;50.30;;;43.77;;
5718;SDS011;2884;47.734;9.244;2022-08-19T07:36:42;48.67;;;43.47;;
5718;SDS011;2884;47.734;9.244;2022-08-19T07:39:11;46.90;;;41.90;;
5718;SDS011;2884;47.734;9.244;2022-08-19T07:41:40;46.50;;;41.70;;
5718;SDS011;2884;47.734;9.244;2022-08-19T07:44:07;55.07;;;42.20;;
5718;SDS011;2884;47.734;9.244;2022-08-19T07:46:34;47.07;;;42.07;;
5718;SDS011;2884;47.734;9.244;2022-08-19T07:49:02;46.77;;;41.67;;
5718;SDS011;2884;47.734;9.244;2022-08-19T07:51:29;48.27;;;41.10;;
5718;SDS011;2884;47.734;9.244;2022-08-19T07:53:55;44.30;;;39.60;;
5718;SDS011;2884;47.734;9.244;2022-08-19T07:56:21;48.30;;;43.13;;
5718;SDS011;2884;47.734;9.244;2022-08-19T07:58:47;48.50;;;41.50;;
5718;SDS011;2884;47.734;9.244;2022-08-19T08:01:17;43.30;;;38.67;;
5718;SDS011;2884;47.734;9.244;2022-08-19T08:03:48;47.47;;;42.43;;
5718;SDS011;2884;47.734;9.244;2022-08-19T08:06:33;48.63;;;43.20;;
5718;SDS011;2884;47.734;9.244;2022-08-19T08:09:18;49.07;;;40.10;;
5718;SDS011;2884;47.734;9.244;2022-08-19T08:11:58;44.33;;;37.67;;
5718;SDS011;2884;47.734;9.244;2022-08-19T08:14:29;43.67;;;38.50;;
5718;SDS011;2884;47.734;9.244;2022-08-19T08:16:58;40.80;;;36.80;;
5718;SDS011;2884;47.734;9.244;2022-08-19T08:19:25;41.20;;;37.10;;
5718;SDS011;2884;47.734;9.244;2022-08-19T08:21:55;40.70;;;36.57;;
5718;SDS011;2884;47.734;9.244;2022-08-19T08:24:22;40.33;;;36.43;;
5718;SDS011;2884;47.734;9.244;2022-08-19T08:26:48;43.50;;;38.93;;
5718;SDS011;2884;47.734;9.244;2022-08-19T08:29:14;43.27;;;39.07;;
5718;SDS011;2884;47.734;9.244;2022-08-19T08:31:41;42.33;;;38.33;;
5718;SDS011;2884;47.734;9.244;2022-08-19T08:34:08;43.43;;;39.00;;
5718;SDS011;2884;47.734;9.244;2022-08-19T08:36:38;40.43;;;36.43;;
5718;SDS011;2884;47.734;9.244;2022-08-19T08:39:07;40.20;;;36.23;;
5718;SDS011;2884;47.734;9.244;2022-08-19T08:44:06;40.63;;;36.30;;
5718;SDS011;2884;47.734;9.244;2022-08-19T08:51:59;43.83;;;38.43;;
5718;SDS011;2884;47.734;9.244;2022-08-19T08:54:39;43.60;;;38.00;;
5718;SDS011;2884;47.734;9.244;2022-08-19T08:57:11;43.37;;;38.97;;
5718;SDS011;2884;47.734;9.244;2022-08-19T08:59:40;43.67;;;39.10;;
5718;SDS011;2884;47.734;9.244;2022-08-19T09:02:07;42.47;;;38.47;;
5718;SDS011;2884;47.734;9.244;2022-08-19T09:04:36;44.30;;;39.73;;
5718;SDS011;2884;47.734;9.244;2022-08-19T09:09:55;42.20;;;37.07;;
5718;SDS011;2884;47.734;9.244;2022-08-19T09:12:26;41.03;;;36.60;;
5718;SDS011;2884;47.734;9.244;2022-08-19T09:15:00;41.80;;;37.37;;
5718;SDS011;2884;47.734;9.244;2022-08-19T09:17:30;40.90;;;36.07;;
5718;SDS011;2884;47.734;9.244;2022-08-19T09:22:36;40.20;;;36.00;;
5718;SDS011;2884;47.734;9.244;2022-08-19T09:25:03;41.90;;;37.50;;
5718;SDS011;2884;47.734;9.244;2022-08-19T09:27:30;40.80;;;36.17;;
5718;SDS011;2884;47.734;9.244;2022-08-19T09:29:57;45.83;;;37.13;;
5718;SDS011;2884;47.734;9.244;2022-08-19T09:32:22;45.17;;;38.13;;
5718;SDS011;2884;47.734;9.244;2022-08-19T09:34:49;44.20;;;38.53;;
5718;SDS011;2884;47.734;9.244;2022-08-19T09:37:14;41.33;;;36.70;;
5718;SDS011;2884;47.734;9.244;2022-08-19T09:39:40;43.03;;;35.93;;
5718;SDS011;2884;47.734;9.244;2022-08-19T09:42:07;48.20;;;37.87;;
5718;SDS011;2884;47.734;9.244;2022-08-19T09:44:39;43.03;;;38.20;;
5718;SDS011;2884;47.734;9.244;2022-08-19T09:47:05;41.33;;;37.10;;
5718;SDS011;2884;47.734;9.244;2022-08-19T09:49:32;42.90;;;37.03;;
5718;SDS011;2884;47.734;9.244;2022-08-19T09:51:58;45.17;;;37.70;;
5718;SDS011;2884;47.734;9.244;2022-08-19T09:54:24;47.23;;;37.50;;
5718;SDS011;2884;47.734;9.244;2022-08-19T09:56:51;42.90;;;38.30;;
5718;SDS011;2884;47.734;9.244;2022-08-19T09:59:17;44.27;;;37.40;;
5718;SDS011;2884;47.734;9.244;2022-08-19T10:01:43;41.03;;;36.70;;
5718;SDS011;2884;47.734;9.244;2022-08-19T10:04:12;41.47;;;37.20;;
5718;SDS011;2884;47.734;9.244;2022-08-19T10:06:39;45.67;;;36.83;;
5718;SDS011;2884;47.734;9.244;2022-08-19T10:09:08;43.87;;;37.20;;
5718;SDS011;2884;47.734;9.244;2022-08-19T10:11:41;44.50;;;39.40;;
5718;SDS011;2884;47.734;9.244;2022-08-19T10:14:08;47.60;;;39.27;;
5718;SDS011;2884;47.734;9.244;2022-08-19T10:16:35;46.67;;;40.53;;
5718;SDS011;2884;47.734;9.244;2022-08-19T10:19:02;46.10;;;36.87;;
5718;SDS011;2884;47.734;9.244;2022-08-19T10:21:30;45.90;;;37.30;;
5718;SDS011;2884;47.734;9.244;2022-08-19T10:23:57;52.80;;;40.87;;
5718;SDS011;2884;47.734;9.244;2022-08-19T10:26:25;49.17;;;40.27;;
5718;SDS011;2884;47.734;9.244;2022-08-19T10:28:52;47.37;;;40.30;;
5718;SDS011;2884;47.734;9.244;2022-08-19T10:31:20;43.93;;;38.90;;
5718;SDS011;2884;47.734;9.244;2022-08-19T10:33:48;46.83;;;39.20;;
5718;SDS011;2884;47.734;9.244;2022-08-19T10:36:16;54.13;;;39.23;;
5718;SDS011;2884;47.734;9.244;2022-08-19T10:38:47;46.30;;;38.20;;
5718;SDS011;2884;47.734;9.244;2022-08-19T10:41:15;39.80;;;35.60;;
5718;SDS011;2884;47.734;9.244;2022-08-19T10:43:42;44.13;;;39.00;;
5718;SDS011;2884;47.734;9.244;2022-08-19T10:46:11;39.60;;;35.60;;
5718;SDS011;2884;47.734;9.244;2022-08-19T10:48:38;39.53;;;33.70;;
5718;SDS011;2884;47.734;9.244;2022-08-19T10:51:04;35.07;;;31.33;;
5718;SDS011;2884;47.734;9.244;2022-08-19T10:53:49;35.17;;;31.37;;
5718;SDS011;2884;47.734;9.244;2022-08-19T10:56:15;39.23;;;32.73;;
5718;SDS011;2884;47.734;9.244;2022-08-19T10:59:10;36.10;;;32.40;;
5718;SDS011;2884;47.734;9.244;2022-08-19T11:01:39;35.67;;;32.17;;
5718;SDS011;2884;47.734;9.244;2022-08-19T11:04:06;32.73;;;29.53;;
5718;SDS011;2884;47.734;9.244;2022-08-19T11:06:35;34.97;;;31.23;;
5718;SDS011;2884;47.734;9.244;2022-08-19T11:09:04;33.97;;;30.80;;
5718;SDS011;2884;47.734;9.244;2022-08-19T11:11:31;31.40;;;28.40;;
5718;SDS011;2884;47.734;9.244;2022-08-19T11:13:57;36.00;;;32.30;;
5718;SDS011;2884;47.734;9.244;2022-08-19T11:16:24;44.07;;;37.23;;
5718;SDS011;2884;47.734;9.244;2022-08-19T11:18:56;43.83;;;39.03;;
5718;SDS011;2884;47.734;9.244;2022-08-19T11:21:30;47.40;;;39.93;;
5718;SDS011;2884;47.734;9.244;2022-08-19T11:23:59;39.23;;;34.03;;
5718;SDS011;2884;47.734;9.244;2022-08-19T11:26:27;36.33;;;32.70;;
5718;SDS011;2884;47.734;9.244;2022-08-19T11:28:54;35.20;;;31.40;;
5718;SDS011;2884;47.734;9.244;2022-08-19T11:31:21;34.90;;;31.40;;
5718;SDS011;2884;47.734;9.244;2022-08-19T11:33:49;41.60;;;31.23;;
5718;SDS011;2884;47.734;9.244;2022-08-19T11:36:19;34.63;;;30.63;;
5718;SDS011;2884;47.734;9.244;2022-08-19T11:38:46;32.83;;;29.60;;
5718;SDS011;2884;47.734;9.244;2022-08-19T11:41:14;29.90;;;26.93;;
5718;SDS011;2884;47.734;9.244;2022-08-19T11:43:41;30.73;;;27.93;;
5718;SDS011;2884;47.734;9.244;2022-08-19T11:46:07;30.57;;;27.60;;
5718;SDS011;2884;47.734;9.244;2022-08-19T11:48:36;32.17;;;28.90;;
5718;SDS011;2884;47.734;9.244;2022-08-19T11:51:05;32.57;;;29.57;;
5718;SDS011;2884;47.734;9.244;2022-08-19T11:53:33;32.37;;;29.27;;
5718;SDS011;2884;47.734;9.244;2022-08-19T11:56:42;32.00;;;28.00;;
5718;SDS011;2884;47.734;9.244;2022-08-19T11:58:52;29.90;;;27.10;;
5718;SDS011;2884;47.734;9.244;2022-08-19T12:01:20;32.70;;;29.50;;
5718;SDS011;2884;47.734;9.244;2022-08-19T12:03:50;32.77;;;29.57;;
5718;SDS011;2884;47.734;9.244;2022-08-19T12:06:20;33.47;;;30.17;;
5718;SDS011;2884;47.734;9.244;2022-08-19T12:08:50;35.53;;;32.13;;
5718;SDS011;2884;47.734;9.244;2022-08-19T12:11:16;35.60;;;32.03;;
5718;SDS011;2884;47.734;9.244;2022-08-19T12:13:42;36.60;;;32.90;;
5718;SDS011;2884;47.734;9.244;2022-08-19T12:16:12;37.40;;;33.60;;
5718;SDS011;2884;47.734;9.244;2022-08-19T12:18:39;37.03;;;33.50;;
5718;SDS011;2884;47.734;9.244;2022-08-19T12:21:09;40.47;;;36.27;;
5718;SDS011;2884;47.734;9.244;2022-08-19T12:23:36;40.40;;;36.40;;
5718;SDS011;2884;47.734;9.244;2022-08-19T12:26:02;43.07;;;38.40;;
5718;SDS011;2884;47.734;9.244;2022-08-19T12:28:28;46.27;;;38.40;;
5718;SDS011;2884;47.734;9.244;2022-08-19T12:30:55;47.53;;;40.50;;
5718;SDS011;2884;47.734;9.244;2022-08-19T12:33:21;44.97;;;40.27;;
5718;SDS011;2884;47.734;9.244;2022-08-19T12:35:50;41.50;;;37.10;;
5718;SDS011;2884;47.734;9.244;2022-08-19T12:38:15;40.80;;;36.50;;
5718;SDS011;2884;47.734;9.244;2022-08-19T12:40:41;40.00;;;35.80;;
5718;SDS011;2884;47.734;9.244;2022-08-19T12:43:10;41.40;;;37.00;;
5718;SDS011;2884;47.734;9.244;2022-08-19T12:45:37;44.27;;;39.80;;
5718;SDS011;2884;47.734;9.244;2022-08-19T12:48:03;43.90;;;39.30;;
5718;SDS011;2884;47.734;9.244;2022-08-19T12:50:30;48.87;;;41.80;;
5718;SDS011;2884;47.734;9.244;2022-08-19T12:52:56;49.87;;;44.47;;
5718;SDS011;2884;47.734;9.244;2022-08-19T12:55:22;51.83;;;44.10;;
5718;SDS011;2884;47.734;9.244;2022-08-19T12:57:50;57.87;;;48.17;;
5718;SDS011;2884;47.734;9.244;2022-08-19T13:00:18;55.73;;;47.10;;
5718;SDS011;2884;47.734;9.244;2022-08-19T13:02:46;57.83;;;48.17;;
5718;SDS011;2884;47.734;9.244;2022-08-19T13:05:16;57.03;;;47.10;;
5718;SDS011;2884;47.734;9.244;2022-08-19T13:07:45;56.53;;;45.87;;
5718;SDS011;2884;47.734;9.244;2022-08-19T13:10:13;51.17;;;45.57;;
5718;SDS011;2884;47.734;9.244;2022-08-19T13:12:44;51.23;;;45.73;;
5718;SDS011;2884;47.734;9.244;2022-08-19T13:15:11;54.50;;;44.77;;
5718;SDS011;2884;47.734;9.244;2022-08-19T13:17:40;52.43;;;45.97;;
5718;SDS011;2884;47.734;9.244;2022-08-19T13:20:07;49.63;;;44.43;;
5718;SDS011;2884;47.734;9.244;2022-08-19T13:22:34;50.00;;;44.67;;
5718;SDS011;2884;47.734;9.244;2022-08-19T13:25:02;48.20;;;43.40;;
5718;SDS011;2884;47.734;9.244;2022-08-19T13:27:29;49.00;;;44.13;;
5718;SDS011;2884;47.734;9.244;2022-08-19T13:29:54;50.50;;;45.10;;
5718;SDS011;2884;47.734;9.244;2022-08-19T13:32:38;47.73;;;42.63;;
5718;SDS011;2884;47.734;9.244;2022-08-19T13:35:22;46.23;;;41.73;;
5718;SDS011;2884;47.734;9.244;2022-08-19T13:37:48;46.77;;;41.97;;
5718;SDS011;2884;47.734;9.244;2022-08-19T13:40:15;46.77;;;42.13;;
5718;SDS011;2884;47.734;9.244;2022-08-19T13:42:45;44.03;;;39.73;;
5718;SDS011;2884;47.734;9.244;2022-08-19T13:45:13;46.40;;;41.53;;
5718;SDS011;2884;47.734;9.244;2022-08-19T13:47:40;45.23;;;40.80;;
5718;SDS011;2884;47.734;9.244;2022-08-19T13:50:14;44.93;;;40.60;;
5718;SDS011;2884;47.734;9.244;2022-08-19T13:52:42;45.97;;;41.40;;
5718;SDS011;2884;47.734;9.244;2022-08-19T13:55:09;46.23;;;41.70;;
5718;SDS011;2884;47.734;9.244;2022-08-19T13:57:35;47.13;;;42.53;;
5718;SDS011;2884;47.734;9.244;2022-08-19T14:00:05;45.63;;;41.13;;
5718;SDS011;2884;47.734;9.244;2022-08-19T14:02:35;45.57;;;40.97;;
5718;SDS011;2884;47.734;9.244;2022-08-19T14:05:03;49.47;;;44.17;;
5718;SDS011;2884;47.734;9.244;2022-08-19T14:07:30;46.70;;;41.90;;
5718;SDS011;2884;47.734;9.244;2022-08-19T14:09:55;46.10;;;41.40;;
5718;SDS011;2884;47.734;9.244;2022-08-19T14:12:21;47.60;;;42.70;;
5718;SDS011;2884;47.734;9.244;2022-08-19T14:14:48;49.77;;;43.80;;
5718;SDS011;2884;47.734;9.244;2022-08-19T14:17:13;45.57;;;41.03;;
5718;SDS011;2884;47.734;9.244;2022-08-19T14:19:40;47.23;;;42.00;;
5718;SDS011;2884;47.734;9.244;2022-08-19T14:22:06;44.23;;;39.73;;
5718;SDS011;2884;47.734;9.244;2022-08-19T14:24:31;48.03;;;43.20;;
5718;SDS011;2884;47.734;9.244;2022-08-19T14:26:57;47.43;;;42.53;;
5718;SDS011;2884;47.734;9.244;2022-08-19T14:29:23;46.97;;;41.83;;
5718;SDS011;2884;47.734;9.244;2022-08-19T14:31:50;49.30;;;44.17;;
5718;SDS011;2884;47.734;9.244;2022-08-19T14:34:15;46.40;;;41.77;;
5718;SDS011;2884;47.734;9.244;2022-08-19T14:36:41;48.27;;;43.47;;
5718;SDS011;2884;47.734;9.244;2022-08-19T14:39:07;45.80;;;41.20;;
5718;SDS011;2884;47.734;9.244;2022-08-19T14:41:34;45.53;;;41.13;;
5718;SDS011;2884;47.734;9.244;2022-08-19T14:44:00;44.33;;;39.80;;
5718;SDS011;2884;47.734;9.244;2022-08-19T14:46:27;46.47;;;41.87;;
5718;SDS011;2884;47.734;9.244;2022-08-19T14:48:54;46.33;;;41.43;;
5718;SDS011;2884;47.734;9.244;2022-08-19T14:51:23;45.40;;;40.70;;
5718;SDS011;2884;47.734;9.244;2022-08-19T14:53:51;45.70;;;41.00;;
5718;SDS011;2884;47.734;9.244;2022-08-19T14:56:18;45.10;;;40.50;;
5718;SDS011;2884;47.734;9.244;2022-08-19T14:58:46;44.07;;;39.83;;
5718;SDS011;2884;47.734;9.244;2022-08-19T15:01:11;48.27;;;43.37;;
5718;SDS011;2884;47.734;9.244;2022-08-19T15:03:41;42.50;;;38.40;;
5718;SDS011;2884;47.734;9.244;2022-08-19T15:06:06;42.60;;;38.30;;
5718;SDS011;2884;47.734;9.244;2022-08-19T15:08:35;43.27;;;38.67;;
5718;SDS011;2884;47.734;9.244;2022-08-19T15:11:07;42.20;;;38.00;;